createdAt,value
2023-02-13T00:01:14.175Z,54.55
2023-02-13T00:03:16.372Z,54.42
2023-02-13T00:05:18.680Z,54.17
2023-02-13T00:07:21.041Z,54.04
2023-02-13T00:09:23.063Z,54.25
2023-02-13T00:11:25.150Z,54.03
2023-02-13T00:13:27.302Z,53.88
2023-02-13T00:15:29.386Z,53.80
2023-02-13T00:17:32.449Z,53.64
2023-02-13T00:19:34.432Z,53.72
2023-02-13T00:21:36.486Z,54.02
2023-02-13T00:23:39.954Z,53.91
2023-02-13T00:25:42.103Z,53.82
2023-02-13T00:27:44.297Z,53.44
2023-02-13T00:29:46.456Z,53.20
2023-02-13T00:31:48.683Z,53.36
2023-02-13T00:33:51.203Z,53.18
2023-02-13T00:36:04.749Z,53.31
2023-02-13T00:38:06.690Z,53.13
2023-02-13T00:40:09.322Z,52.60
2023-02-13T00:42:11.975Z,52.85
2023-02-13T00:44:13.992Z,52.56
2023-02-13T00:46:17.703Z,53.13
2023-02-13T00:48:19.962Z,52.57
2023-02-13T00:50:21.934Z,53.22
2023-02-13T00:52:23.952Z,53.09
2023-02-13T00:54:25.920Z,52.89
2023-02-13T00:56:28.428Z,52.73
2023-02-13T00:58:33.453Z,52.43
2023-02-13T01:00:35.754Z,53.22
2023-02-13T01:02:37.703Z,52.74
2023-02-13T01:04:39.808Z,52.80
2023-02-13T01:06:41.936Z,52.76
2023-02-13T01:08:44.023Z,52.91
2023-02-13T01:10:47.623Z,52.62
2023-02-13T01:12:49.646Z,52.61
2023-02-13T01:14:52.634Z,53.69
2023-02-13T01:16:55.280Z,53.41
2023-02-13T01:18:57.397Z,53.54
2023-02-13T01:21:06.210Z,53.26
2023-02-13T01:23:10.235Z,53.52
2023-02-13T01:25:12.243Z,53.40
2023-02-13T01:27:14.751Z,53.35
2023-02-13T01:29:17.855Z,52.99
2023-02-13T01:31:20.205Z,53.38
2023-02-13T01:33:27.864Z,52.99
2023-02-13T01:35:29.772Z,53.09
2023-02-13T01:37:32.078Z,53.39
2023-02-13T01:39:36.099Z,53.50
2023-02-13T01:41:38.826Z,53.05
2023-02-13T01:44:26.874Z,53.46
2023-02-13T01:46:43.447Z,53.50
2023-02-13T01:48:46.908Z,53.18
2023-02-13T01:51:06.063Z,53.55
2023-02-13T01:53:38.324Z,54.01
2023-02-13T01:56:18.352Z,54.52
2023-02-13T01:58:25.112Z,54.56
2023-02-13T02:00:30.455Z,54.27
2023-02-13T02:02:37.558Z,54.50
2023-02-13T02:04:42.288Z,54.17
2023-02-13T02:06:58.170Z,54.06
2023-02-13T02:09:11.116Z,54.02
2023-02-13T02:11:22.921Z,54.31
2023-02-13T02:13:29.773Z,53.50
2023-02-13T02:15:38.975Z,53.57
2023-02-13T02:17:41.633Z,53.68
2023-02-13T02:20:04.118Z,54.30
2023-02-13T02:22:38.215Z,53.61
2023-02-13T02:25:14.166Z,54.13
2023-02-13T02:27:37.861Z,54.27
2023-02-13T02:30:01.838Z,55.38
2023-02-13T02:32:11.639Z,53.98
2023-02-13T02:34:31.931Z,54.52
2023-02-13T02:36:43.334Z,54.27
2023-02-13T02:39:02.223Z,54.46
2023-02-13T02:41:51.944Z,54.94
2023-02-13T02:44:08.589Z,55.36
2023-02-13T02:46:32.585Z,55.62
2023-02-13T02:49:25.306Z,55.75
2023-02-13T02:51:30.234Z,56.17
2023-02-13T02:53:47.264Z,55.10
2023-02-13T02:56:07.677Z,54.82
2023-02-13T02:58:32.797Z,55.73
2023-02-13T03:01:01.681Z,56.42
2023-02-13T03:03:28.409Z,56.18
2023-02-13T03:05:53.008Z,55.36
2023-02-13T03:07:55.060Z,56.08
2023-02-13T03:10:20.947Z,55.58
2023-02-13T03:12:45.642Z,55.77
2023-02-13T03:14:47.892Z,56.03
2023-02-13T03:17:09.806Z,55.70
2023-02-13T03:19:47.357Z,56.15
2023-02-13T03:22:18.510Z,55.84
2023-02-13T03:24:32.048Z,55.67
2023-02-13T03:26:52.142Z,55.54
2023-02-13T03:29:27.238Z,55.64
2023-02-13T03:31:50.858Z,55.82
2023-02-13T03:34:24.826Z,56.01
2023-02-13T03:36:59.257Z,56.02
2023-02-13T03:39:17.258Z,56.07
2023-02-13T03:41:27.768Z,55.92
2023-02-13T03:43:37.005Z,56.02
2023-02-13T03:45:57.487Z,55.81
2023-02-13T03:48:10.031Z,55.76
2023-02-13T03:50:14.150Z,55.50
2023-02-13T03:52:27.446Z,55.71
2023-02-13T03:55:05.730Z,56.73
2023-02-13T03:57:27.353Z,55.70
2023-02-13T03:59:34.112Z,55.32
2023-02-13T04:01:37.778Z,54.88
2023-02-13T04:03:57.825Z,54.76
2023-02-13T04:06:27.912Z,55.16
2023-02-13T04:08:30.400Z,54.98
2023-02-13T04:10:35.986Z,54.75
2023-02-13T04:12:47.805Z,54.94
2023-02-13T04:15:03.408Z,54.59
2023-02-13T04:17:12.128Z,54.25
2023-02-13T04:19:15.405Z,54.55
2023-02-13T04:21:17.484Z,54.32
2023-02-13T04:23:19.950Z,54.39
2023-02-13T04:25:22.606Z,54.58
2023-02-13T04:27:26.993Z,55.25
2023-02-13T04:29:29.146Z,55.08
2023-02-13T04:31:31.562Z,55.12
2023-02-13T04:33:33.792Z,54.87
2023-02-13T04:35:35.931Z,54.86
2023-02-13T04:37:38.128Z,54.74
2023-02-13T04:39:40.081Z,55.06
2023-02-13T04:41:42.634Z,55.07
2023-02-13T04:43:45.502Z,55.38
2023-02-13T04:45:51.240Z,55.96
2023-02-13T04:47:55.137Z,55.54
2023-02-13T04:49:57.250Z,55.73
2023-02-13T04:51:59.228Z,55.53
2023-02-13T04:54:01.235Z,55.18
2023-02-13T04:56:03.360Z,55.57
2023-02-13T04:58:08.323Z,55.61
2023-02-13T05:00:11.136Z,56.07
2023-02-13T05:02:13.479Z,55.84
2023-02-13T05:04:16.510Z,55.25
2023-02-13T05:06:18.642Z,55.62
2023-02-13T05:08:20.748Z,55.37
2023-02-13T05:10:23.222Z,55.49
2023-02-13T05:12:25.288Z,55.43
2023-02-13T05:14:27.834Z,55.77
2023-02-13T05:16:29.973Z,55.79
2023-02-13T05:18:32.625Z,55.38
2023-02-13T05:20:34.693Z,55.02
2023-02-13T05:22:55.344Z,54.76
2023-02-13T05:24:57.406Z,55.13
2023-02-13T05:26:59.435Z,55.08
2023-02-13T05:29:23.070Z,54.77
2023-02-13T05:31:25.322Z,54.52
2023-02-13T05:33:27.838Z,54.92
2023-02-13T05:35:29.930Z,54.41
2023-02-13T05:37:32.384Z,54.69
2023-02-13T05:39:34.532Z,54.55
2023-02-13T05:41:36.539Z,54.94
2023-02-13T05:43:38.617Z,54.98
2023-02-13T05:45:40.809Z,54.62
2023-02-13T05:47:43.366Z,55.06
2023-02-13T05:49:45.464Z,54.97
2023-02-13T05:51:47.857Z,55.11
2023-02-13T05:53:50.193Z,55.37
2023-02-13T05:55:52.686Z,55.91
2023-02-13T05:58:00.805Z,55.73
2023-02-13T06:00:04.785Z,56.09
2023-02-13T06:02:07.606Z,55.72
2023-02-13T06:04:09.904Z,56.83
2023-02-13T06:06:12.100Z,56.66
2023-02-13T06:08:14.208Z,56.30
2023-02-13T06:10:16.559Z,56.82
2023-02-13T06:12:18.628Z,57.00
2023-02-13T06:14:20.724Z,57.08
2023-02-13T06:16:23.390Z,56.88
2023-02-13T06:18:27.074Z,56.58
2023-02-13T06:20:29.450Z,56.94
2023-02-13T06:22:31.458Z,56.38
2023-02-13T06:24:33.890Z,56.92
2023-02-13T06:26:35.962Z,56.51
2023-02-13T06:28:38.093Z,56.32
2023-02-13T06:30:40.303Z,56.64
2023-02-13T06:32:42.696Z,56.86
2023-02-13T06:34:44.714Z,56.93
2023-02-13T06:36:47.310Z,56.49
2023-02-13T06:38:49.289Z,56.53
2023-02-13T06:40:51.514Z,56.57
2023-02-13T06:42:54.121Z,56.72
2023-02-13T06:44:56.337Z,57.04
2023-02-13T06:47:01.583Z,57.30
2023-02-13T06:49:04.039Z,56.61
2023-02-13T06:51:08.872Z,56.36
2023-02-13T06:53:12.134Z,56.97
2023-02-13T06:55:14.994Z,56.40
2023-02-13T06:57:17.630Z,56.67
2023-02-13T06:59:19.718Z,56.34
2023-02-13T07:01:21.904Z,55.62
2023-02-13T07:03:24.400Z,55.91
2023-02-13T07:05:26.292Z,56.31
2023-02-13T07:07:28.340Z,55.99
2023-02-13T07:09:31.715Z,55.60
2023-02-13T07:11:34.276Z,55.72
2023-02-13T07:13:36.281Z,55.36
2023-02-13T07:15:38.790Z,55.35
2023-02-13T07:17:40.654Z,55.54
2023-02-13T07:19:42.676Z,55.36
2023-02-13T07:21:44.546Z,55.28
2023-02-13T07:23:46.595Z,54.82
2023-02-13T07:25:48.649Z,54.76
2023-02-13T07:27:50.897Z,54.31
2023-02-13T07:29:52.868Z,54.29
2023-02-13T07:31:55.049Z,54.64
2023-02-13T07:34:00.411Z,54.27
2023-02-13T07:36:05.887Z,53.99
2023-02-13T07:38:08.044Z,54.21
2023-02-13T07:40:13.923Z,54.53
2023-02-13T07:42:16.133Z,54.41
2023-02-13T07:44:18.190Z,54.68
2023-02-13T07:46:20.717Z,54.79
2023-02-13T07:48:24.126Z,54.67
2023-02-13T07:50:26.690Z,54.49
2023-02-13T07:52:28.762Z,54.37
2023-02-13T07:54:31.354Z,54.35
2023-02-13T07:56:33.792Z,54.04
2023-02-13T07:58:37.489Z,54.13
2023-02-13T08:00:41.670Z,53.90
2023-02-13T08:02:44.604Z,53.63
2023-02-13T08:04:46.742Z,53.81
2023-02-13T08:06:48.802Z,53.54
2023-02-13T08:09:10.855Z,53.76
2023-02-13T08:11:50.171Z,52.70
2023-02-13T08:13:52.615Z,53.17
2023-02-13T08:15:55.041Z,53.42
2023-02-13T08:17:57.260Z,53.49
2023-02-13T08:19:59.472Z,53.06
2023-02-13T08:22:01.717Z,53.84
2023-02-13T08:24:04.923Z,53.20
2023-02-13T08:26:07.045Z,52.83
2023-02-13T08:28:09.013Z,53.13
2023-02-13T08:30:12.243Z,52.59
2023-02-13T08:32:15.163Z,52.69
2023-02-13T08:34:17.301Z,52.02
2023-02-13T08:36:20.060Z,52.34
2023-02-13T08:38:22.083Z,52.40
2023-02-13T08:40:26.033Z,52.47
2023-02-13T08:42:28.155Z,52.44
2023-02-13T08:44:30.401Z,51.74
2023-02-13T08:46:32.638Z,51.80
2023-02-13T08:48:35.170Z,51.30
2023-02-13T08:50:37.468Z,51.99
2023-02-13T08:52:39.488Z,52.15
2023-02-13T08:54:41.555Z,51.93
2023-02-13T08:56:43.798Z,52.17
2023-02-13T08:58:49.546Z,52.29
2023-02-13T09:00:52.092Z,52.88
2023-02-13T09:02:56.894Z,52.76
2023-02-13T09:05:00.506Z,52.34
2023-02-13T09:07:02.660Z,52.40
2023-02-13T09:09:05.811Z,52.16
2023-02-13T09:11:08.014Z,52.45
2023-02-13T09:13:10.699Z,52.65
2023-02-13T09:15:12.924Z,52.74
2023-02-13T09:17:18.654Z,52.71
2023-02-13T09:19:21.052Z,53.05
2023-02-13T09:21:24.263Z,52.37
2023-02-13T09:23:26.625Z,52.27
2023-02-13T09:25:28.659Z,52.61
2023-02-13T09:27:30.977Z,52.94
2023-02-13T09:29:34.162Z,53.06
2023-02-13T09:31:38.865Z,53.28
2023-02-13T09:33:41.383Z,53.38
2023-02-13T09:35:46.196Z,53.36
2023-02-13T09:37:51.013Z,53.49
2023-02-13T09:39:53.590Z,53.61
2023-02-13T09:41:57.496Z,53.49
2023-02-13T09:44:34.190Z,53.63
2023-02-13T09:46:39.170Z,54.17
2023-02-13T09:48:45.645Z,54.09
2023-02-13T09:50:47.844Z,54.03
2023-02-13T09:52:53.308Z,53.86
2023-02-13T09:54:58.485Z,54.36
2023-02-13T09:57:19.680Z,54.67
2023-02-13T09:59:36.911Z,54.36
2023-02-13T10:01:44.525Z,54.32
2023-02-13T10:04:05.072Z,54.20
2023-02-13T10:06:21.921Z,54.09
2023-02-13T10:08:36.430Z,54.32
2023-02-13T10:11:07.506Z,54.04
2023-02-13T10:13:26.497Z,54.20
2023-02-13T10:15:51.547Z,53.94
2023-02-13T10:18:35.154Z,54.26
2023-02-13T10:20:42.458Z,53.95
2023-02-13T10:23:08.429Z,53.92
2023-02-13T10:25:23.079Z,53.89
2023-02-13T10:27:43.532Z,52.73
2023-02-13T10:30:15.242Z,51.87
2023-02-13T10:32:22.575Z,51.64
2023-02-13T10:34:31.584Z,51.67
2023-02-13T10:36:40.884Z,51.52
2023-02-13T10:39:05.376Z,51.17
2023-02-13T10:41:45.062Z,50.75
2023-02-13T10:44:13.672Z,50.31
2023-02-13T10:46:34.270Z,50.82
2023-02-13T10:49:00.204Z,50.63
2023-02-13T10:51:06.312Z,51.03
2023-02-13T10:53:25.216Z,50.50
2023-02-13T10:55:59.485Z,50.29
2023-02-13T10:58:05.021Z,50.79
2023-02-13T11:00:46.246Z,50.84
2023-02-13T11:02:48.790Z,51.20
2023-02-13T11:04:57.973Z,50.83
2023-02-13T11:07:01.894Z,51.07
2023-02-13T11:09:09.868Z,51.09
2023-02-13T11:11:31.714Z,50.65
2023-02-13T11:13:33.621Z,50.52
2023-02-13T11:15:37.407Z,50.84
2023-02-13T11:17:44.226Z,50.75
2023-02-13T11:19:56.039Z,50.80
2023-02-13T11:22:12.276Z,50.93
2023-02-13T11:24:24.736Z,50.81
2023-02-13T11:26:29.547Z,51.21
2023-02-13T11:28:35.223Z,51.80
2023-02-13T11:30:39.642Z,51.84
2023-02-13T11:32:41.948Z,51.63
2023-02-13T11:34:46.769Z,51.63
2023-02-13T11:36:52.992Z,51.73
2023-02-13T11:39:00.670Z,51.52
2023-02-13T11:41:12.386Z,51.87
2023-02-13T11:43:39.241Z,52.29
2023-02-13T11:45:41.422Z,52.12
2023-02-13T11:47:43.846Z,51.02
2023-02-13T11:49:47.819Z,51.91
2023-02-13T11:51:55.968Z,52.22
2023-02-13T11:54:01.277Z,51.68
2023-02-13T11:56:09.275Z,51.73
2023-02-13T11:58:11.545Z,50.53
2023-02-13T12:00:37.521Z,50.68
2023-02-13T12:02:50.194Z,49.97
2023-02-13T12:05:17.017Z,49.13
2023-02-13T12:07:21.700Z,50.36
2023-02-13T12:09:23.797Z,50.05
2023-02-13T12:11:33.808Z,49.75
2023-02-13T12:13:39.135Z,49.88
2023-02-13T12:15:43.438Z,50.39
2023-02-13T12:17:50.157Z,50.66
2023-02-13T12:19:52.566Z,50.05
2023-02-13T12:21:57.548Z,49.50
2023-02-13T12:24:30.378Z,49.38
2023-02-13T12:26:43.050Z,50.00
2023-02-13T12:28:45.083Z,50.10
2023-02-13T12:31:09.907Z,48.82
2023-02-13T12:33:54.306Z,49.89
2023-02-13T12:36:21.234Z,50.14
2023-02-13T12:38:35.198Z,49.21
2023-02-13T12:40:43.332Z,49.06
2023-02-13T12:43:27.102Z,50.54
2023-02-13T12:45:38.642Z,50.33
2023-02-13T12:47:49.158Z,50.25
2023-02-13T12:50:18.001Z,50.60
2023-02-13T12:52:29.240Z,50.88
2023-02-13T12:55:05.202Z,49.72
2023-02-13T12:57:07.485Z,50.38
2023-02-13T12:59:11.007Z,50.85
2023-02-13T13:01:34.297Z,50.38
2023-02-13T13:03:52.522Z,50.28
2023-02-13T13:06:31.976Z,50.49
2023-02-13T13:08:48.931Z,50.40
2023-02-13T13:11:12.747Z,50.22
2023-02-13T13:13:20.642Z,50.14
2023-02-13T13:15:48.138Z,50.06
2023-02-13T13:18:40.989Z,50.09
2023-02-13T13:20:58.834Z,49.47
2023-02-13T13:23:42.332Z,49.87
2023-02-13T13:25:52.169Z,49.90
2023-02-13T13:28:02.437Z,49.75
2023-02-13T13:30:14.227Z,49.85
2023-02-13T13:32:21.654Z,49.95
2023-02-13T13:34:26.804Z,50.26
2023-02-13T13:36:50.044Z,49.72
2023-02-13T13:39:05.351Z,50.17
2023-02-13T13:41:23.681Z,49.77
2023-02-13T13:44:22.666Z,49.28
2023-02-13T13:46:32.864Z,50.14
2023-02-13T13:48:35.005Z,49.49
2023-02-13T13:50:42.118Z,49.28
2023-02-13T13:53:12.225Z,49.54
2023-02-13T13:56:09.611Z,48.92
2023-02-13T13:58:40.888Z,49.36
2023-02-13T14:00:43.133Z,49.00
2023-02-13T14:02:51.491Z,49.03
2023-02-13T14:05:20.842Z,49.28
2023-02-13T14:07:24.712Z,49.71
2023-02-13T14:09:27.282Z,49.31
2023-02-13T14:11:39.277Z,48.93
2023-02-13T14:13:41.694Z,49.28
2023-02-13T14:15:45.112Z,49.31
2023-02-13T14:17:49.743Z,49.53
2023-02-13T14:19:53.396Z,49.82
2023-02-13T14:22:15.893Z,49.88
2023-02-13T14:24:20.751Z,49.64
2023-02-13T14:26:32.410Z,49.10
2023-02-13T14:28:34.521Z,49.75
2023-02-13T14:30:40.606Z,49.48
2023-02-13T14:32:47.204Z,49.28
2023-02-13T14:35:18.790Z,49.17
2023-02-13T14:37:30.472Z,49.62
2023-02-13T14:39:38.067Z,49.65
2023-02-13T14:41:54.214Z,49.10
2023-02-13T14:43:57.115Z,49.49
2023-02-13T14:46:08.445Z,49.72
2023-02-13T14:48:14.925Z,49.43
2023-02-13T14:50:23.963Z,49.47
2023-02-13T14:52:32.955Z,49.23
2023-02-13T14:55:12.970Z,49.70
2023-02-13T14:57:32.065Z,49.20
2023-02-13T14:59:39.058Z,49.52
2023-02-13T15:01:58.119Z,49.69
2023-02-13T15:04:07.814Z,49.77
2023-02-13T15:06:30.159Z,50.12
2023-02-13T15:08:41.290Z,50.05
2023-02-13T15:10:47.327Z,50.16
2023-02-13T15:12:58.449Z,50.31
2023-02-13T15:15:01.939Z,50.05
2023-02-13T15:17:20.550Z,50.13
2023-02-13T15:19:24.768Z,49.95
2023-02-13T15:21:34.388Z,50.08
2023-02-13T15:23:36.745Z,50.22
2023-02-13T15:25:40.556Z,50.56
2023-02-13T15:27:44.129Z,50.32
2023-02-13T15:30:05.113Z,50.81
2023-02-13T15:32:28.898Z,50.63
2023-02-13T15:34:35.869Z,50.41
2023-02-13T15:36:42.223Z,50.40
2023-02-13T15:38:47.620Z,50.39
2023-02-13T15:40:52.263Z,50.50
2023-02-13T15:42:55.569Z,50.43
2023-02-13T15:44:58.956Z,50.53
2023-02-13T15:47:09.628Z,50.31
2023-02-13T15:49:18.939Z,51.05
2023-02-13T15:51:23.694Z,50.83
2023-02-13T15:53:26.044Z,50.56
2023-02-13T15:55:33.998Z,50.30
2023-02-13T15:57:36.457Z,50.34
2023-02-13T15:59:39.887Z,50.75
2023-02-13T16:01:46.534Z,50.67
2023-02-13T16:04:00.277Z,50.67
2023-02-13T16:06:04.835Z,50.63
2023-02-13T16:08:25.226Z,50.44
2023-02-13T16:10:36.401Z,50.11
2023-02-13T16:12:47.027Z,50.91
2023-02-13T16:14:54.437Z,50.47
2023-02-13T16:17:07.176Z,50.12
2023-02-13T16:19:32.801Z,51.21
2023-02-13T16:21:36.097Z,50.24
2023-02-13T16:23:38.824Z,50.90
2023-02-13T16:25:41.757Z,50.45
2023-02-13T16:27:52.780Z,51.00
2023-02-13T16:30:03.372Z,51.04
2023-02-13T16:32:14.589Z,51.05
2023-02-13T16:34:22.387Z,50.87
2023-02-13T16:36:30.065Z,50.96
2023-02-13T16:38:36.102Z,50.67
2023-02-13T16:40:41.664Z,50.64
2023-02-13T16:42:43.750Z,50.68
2023-02-13T16:44:45.882Z,50.39
2023-02-13T16:46:58.339Z,50.78
2023-02-13T16:49:09.590Z,50.74
2023-02-13T16:51:12.624Z,50.87
2023-02-13T16:53:16.454Z,50.53
2023-02-13T16:55:18.847Z,50.40
2023-02-13T16:57:33.929Z,50.96
2023-02-13T16:59:48.606Z,51.06
2023-02-13T17:02:14.678Z,50.80
2023-02-13T17:04:22.176Z,50.81
2023-02-13T17:06:25.395Z,51.01
2023-02-13T17:08:28.052Z,50.94
2023-02-13T17:10:34.170Z,51.15
2023-02-13T17:12:38.862Z,51.13
2023-02-13T17:14:41.174Z,51.29
2023-02-13T17:16:43.183Z,51.01
2023-02-13T17:18:45.214Z,51.56
2023-02-13T17:20:47.834Z,51.56
2023-02-13T17:22:52.677Z,51.22
2023-02-13T17:24:54.969Z,51.49
2023-02-13T17:26:57.150Z,51.20
2023-02-13T17:28:59.618Z,51.64
2023-02-13T17:31:02.228Z,52.60
2023-02-13T17:33:08.254Z,52.29
2023-02-13T17:35:11.924Z,52.26
2023-02-13T17:37:18.657Z,52.51
2023-02-13T17:39:20.766Z,52.14
2023-02-13T17:41:24.148Z,52.06
2023-02-13T17:43:28.176Z,51.88
2023-02-13T17:45:33.775Z,52.52
2023-02-13T17:47:35.957Z,52.46
2023-02-13T17:49:38.398Z,52.19
2023-02-13T17:51:41.621Z,52.69
2023-02-13T17:53:43.649Z,52.47
2023-02-13T17:55:45.858Z,52.41
2023-02-13T17:57:52.704Z,53.14
2023-02-13T17:59:59.315Z,52.85
2023-02-13T18:02:01.500Z,52.73
2023-02-13T18:04:03.691Z,53.19
2023-02-13T18:06:06.174Z,53.01
2023-02-13T18:08:08.753Z,53.43
2023-02-13T18:10:18.768Z,53.26
2023-02-13T18:12:24.317Z,53.27
2023-02-13T18:14:29.985Z,53.37
2023-02-13T18:16:32.278Z,53.18
2023-02-13T18:18:34.314Z,52.83
2023-02-13T18:20:36.443Z,53.33
2023-02-13T18:22:41.670Z,53.46
2023-02-13T18:24:43.942Z,52.99
2023-02-13T18:26:46.044Z,53.25
2023-02-13T18:28:52.501Z,52.95
2023-02-13T18:30:54.499Z,53.26
2023-02-13T18:32:59.114Z,53.07
2023-02-13T18:35:01.349Z,52.92
2023-02-13T18:37:04.557Z,53.06
2023-02-13T18:39:08.421Z,52.99
2023-02-13T18:41:12.205Z,53.04
2023-02-13T18:43:14.180Z,53.12
2023-02-13T18:45:16.314Z,53.20
2023-02-13T18:47:18.875Z,53.20
2023-02-13T18:49:21.065Z,52.98
2023-02-13T18:51:25.187Z,53.21
2023-02-13T18:53:27.640Z,53.35
2023-02-13T18:55:29.659Z,53.35
2023-02-13T18:57:31.914Z,53.74
2023-02-13T18:59:33.974Z,53.29
2023-02-13T19:01:36.896Z,53.18
2023-02-13T19:03:39.693Z,53.28
2023-02-13T19:05:41.802Z,53.90
2023-02-13T19:07:44.149Z,53.89
2023-02-13T19:09:46.266Z,53.86
2023-02-13T19:11:48.928Z,53.61
2023-02-13T19:13:56.679Z,54.23
2023-02-13T19:16:10.838Z,54.79
2023-02-13T19:18:12.849Z,54.39
2023-02-13T19:20:16.751Z,54.25
2023-02-13T19:22:19.320Z,54.37
2023-02-13T19:24:21.343Z,54.62
2023-02-13T19:26:26.250Z,54.84
2023-02-13T19:28:28.308Z,54.83
2023-02-13T19:30:30.524Z,54.45
2023-02-13T19:32:32.705Z,54.38
2023-02-13T19:34:35.073Z,54.30
2023-02-13T19:36:37.030Z,54.64
2023-02-13T19:38:42.060Z,54.74
2023-02-13T19:40:44.148Z,54.87
2023-02-13T19:42:46.186Z,55.18
2023-02-13T19:44:48.126Z,55.54
2023-02-13T19:46:50.357Z,55.32
2023-02-13T19:48:52.854Z,55.64
2023-02-13T19:50:54.915Z,55.89
2023-02-13T19:52:56.855Z,55.31
2023-02-13T19:54:59.261Z,55.15
2023-02-13T19:57:07.298Z,55.39
2023-02-13T19:59:13.592Z,55.56
2023-02-13T20:01:18.394Z,55.73
2023-02-13T20:03:20.939Z,55.95
2023-02-13T20:05:22.832Z,56.07
2023-02-13T20:07:24.889Z,56.56
2023-02-13T20:09:26.872Z,55.85
2023-02-13T20:11:29.585Z,55.83
2023-02-13T20:13:32.100Z,56.04
2023-02-13T20:15:37.082Z,55.73
2023-02-13T20:17:39.598Z,55.97
2023-02-13T20:19:41.866Z,56.42
2023-02-13T20:21:45.464Z,56.24
2023-02-13T20:23:51.838Z,56.88
2023-02-13T20:25:56.201Z,56.18
2023-02-13T20:27:59.823Z,55.90
2023-02-13T20:30:06.860Z,56.18
2023-02-13T20:32:10.461Z,56.15
2023-02-13T20:34:12.868Z,56.08
2023-02-13T20:36:20.777Z,56.07
2023-02-13T20:38:22.903Z,56.33
2023-02-13T20:40:25.974Z,55.57
2023-02-13T20:42:28.359Z,55.66
2023-02-13T20:44:30.633Z,55.53
2023-02-13T20:46:34.482Z,56.35
2023-02-13T20:48:37.659Z,56.00
2023-02-13T20:50:40.148Z,56.19
2023-02-13T20:52:42.375Z,56.10
2023-02-13T20:54:44.422Z,56.68
2023-02-13T20:56:47.658Z,56.66
2023-02-13T20:58:51.566Z,56.43
2023-02-13T21:00:53.645Z,56.48
2023-02-13T21:02:55.824Z,56.80
2023-02-13T21:04:57.966Z,57.21
2023-02-13T21:07:00.338Z,56.84
2023-02-13T21:09:04.296Z,57.27
2023-02-13T21:11:07.942Z,57.70
2023-02-13T21:13:10.696Z,58.20
2023-02-13T21:15:12.717Z,57.80
2023-02-13T21:17:14.821Z,57.64
2023-02-13T21:19:21.359Z,57.56
2023-02-13T21:21:28.056Z,57.75
2023-02-13T21:23:31.025Z,57.61
2023-02-13T21:25:33.628Z,57.23
2023-02-13T21:27:35.634Z,57.58
2023-02-13T21:29:38.389Z,57.34
2023-02-13T21:31:47.957Z,57.18
2023-02-13T21:33:50.669Z,56.95
2023-02-13T21:36:01.131Z,57.23
2023-02-13T21:38:03.401Z,57.98
2023-02-13T21:40:06.205Z,57.80
2023-02-13T21:42:08.586Z,57.39
2023-02-13T21:44:16.126Z,58.33
2023-02-13T21:46:18.100Z,59.29
2023-02-13T21:48:20.534Z,58.48
2023-02-13T21:50:23.226Z,57.95
2023-02-13T21:52:25.228Z,57.45
2023-02-13T21:54:27.323Z,57.39
2023-02-13T21:56:32.226Z,57.78
2023-02-13T21:58:36.523Z,58.09
2023-02-13T22:00:38.494Z,57.30
2023-02-13T22:02:41.141Z,57.49
2023-02-13T22:04:43.325Z,57.83
2023-02-13T22:06:49.326Z,57.64
2023-02-13T22:08:57.115Z,57.77
2023-02-13T22:11:02.966Z,57.78
2023-02-13T22:13:05.264Z,57.30
2023-02-13T22:15:07.868Z,57.76
2023-02-13T22:17:10.261Z,57.63
2023-02-13T22:19:16.587Z,57.55
2023-02-13T22:21:23.126Z,57.92
2023-02-13T22:23:28.191Z,57.39
2023-02-13T22:25:30.568Z,57.03
2023-02-13T22:27:32.695Z,57.33
2023-02-13T22:29:35.015Z,57.35
2023-02-13T22:31:37.813Z,57.68
2023-02-13T22:33:40.923Z,57.83
2023-02-13T22:35:43.164Z,57.79
2023-02-13T22:37:45.034Z,57.76
2023-02-13T22:39:47.182Z,57.32
2023-02-13T22:41:49.227Z,57.68
2023-02-13T22:43:52.239Z,57.35
2023-02-13T22:45:54.316Z,57.73
2023-02-13T22:47:56.544Z,56.99
2023-02-13T22:49:58.750Z,57.07
2023-02-13T22:52:01.405Z,56.96
2023-02-13T22:54:04.204Z,57.40
2023-02-13T22:56:09.054Z,57.17
2023-02-13T22:58:11.734Z,57.23
2023-02-13T23:00:15.054Z,57.20
2023-02-13T23:02:17.098Z,57.36
2023-02-13T23:04:19.357Z,57.73
2023-02-13T23:06:22.127Z,57.81
2023-02-13T23:08:24.232Z,57.70
2023-02-13T23:10:26.962Z,57.36
2023-02-13T23:12:40.346Z,57.10
2023-02-13T23:14:42.357Z,56.92
2023-02-13T23:17:03.553Z,57.13
2023-02-13T23:19:05.840Z,56.68
2023-02-13T23:21:11.458Z,57.40
2023-02-13T23:23:13.588Z,56.96
2023-02-13T23:25:16.895Z,57.08
2023-02-13T23:27:19.038Z,56.95
2023-02-13T23:29:21.504Z,57.23
2023-02-13T23:31:23.607Z,57.62
2023-02-13T23:33:25.747Z,57.70
2023-02-13T23:35:27.820Z,57.67
2023-02-13T23:37:30.753Z,57.67
2023-02-13T23:39:32.890Z,57.96
2023-02-13T23:41:35.033Z,57.97
2023-02-13T23:43:37.100Z,57.32
2023-02-13T23:45:39.378Z,57.45
2023-02-13T23:47:41.673Z,57.84
2023-02-13T23:49:43.606Z,57.91
2023-02-13T23:51:45.702Z,58.38
2023-02-13T23:53:47.983Z,58.02
2023-02-13T23:55:50.867Z,58.23
2023-02-13T23:57:52.995Z,58.72
2023-02-13T23:59:55.040Z,58.57
